Check out our new PWSWeather beta!
PWSweather.com
Personal Weather Stations
Station Observations
PEISSEN1
PeissenbergDE

PeissenbergDE

Lat: 47.791845, Lon: 11.064121

Elevation: 1929

Station Type: Davis Vantage Pro 2

wetter-peissenberg.de

High Low Average
Temperature 34.5°F1.4°C 24.6°F-4.1°C 29.8°F-1.2°C
Dew Point 31.6°F-0.2°C 22.4°F-5.3°C 27.6°F-2.4°C
Winds 1.2 mph 1.9 kmh Calm Calm Calm SECalm SE
Wind Gusts 3.0 mph4.8 kmh -- --
Humidity 93% 89% 91%
Pressure 30.12 in1020.0 mb 30.02 in1016.6 mb -
Precipitation 0.00 in0.0 mm - -
Hour Temp Dew Point Humidity Winds Wind Gusts Pressure Precip Precip Rate Daily Precip Total
12:00 AM 26.4°F-3.1°C 23.9°F-4.5°C 90% Calm Calm -- 30.14 in1020.7 mb 0.00 in0.0 mm 0.00 in0.0 mm 0.00 in0.0 mm
12:10 AM 26.2°F-3.2°C 23.7°F-4.6°C 90% Calm Calm -- 30.14 in1020.7 mb 0.00 in0.0 mm 0.00 in0.0 mm 0.00 in0.0 mm
12:20 AM 26.2°F-3.2°C 23.7°F-4.6°C 90% Calm Calm -- 30.14 in1020.7 mb 0.00 in0.0 mm 0.00 in0.0 mm 0.00 in0.0 mm
02:05 AM 24.8°F-4.0°C 22.6°F-5.2°C 91% Calm Calm -- 30.12 in1020.0 mb 0.00 in0.0 mm 0.00 in0.0 mm 0.00 in0.0 mm
02:15 AM 24.6°F-4.1°C 22.4°F-5.3°C 91% Calm Calm -- 30.12 in1020.0 mb 0.00 in0.0 mm 0.00 in0.0 mm 0.00 in0.0 mm
02:25 AM 24.6°F-4.1°C 22.4°F-5.3°C 91% Calm Calm -- 30.11 in1019.6 mb 0.00 in0.0 mm 0.00 in0.0 mm 0.00 in0.0 mm
04:00 AM 24.6°F-4.1°C 22.4°F-5.3°C 91% Calm Calm -- 30.09 in1019.0 mb 0.00 in0.0 mm 0.00 in0.0 mm 0.00 in0.0 mm
04:10 AM 24.6°F-4.1°C 22.4°F-5.3°C 91% Calm Calm -- 30.09 in1019.0 mb 0.00 in0.0 mm 0.00 in0.0 mm 0.00 in0.0 mm
04:20 AM 24.8°F-4.0°C 22.6°F-5.2°C 91% Calm Calm -- 30.09 in1019.0 mb 0.00 in0.0 mm 0.00 in0.0 mm 0.00 in0.0 mm
06:00 AM 26.1°F-3.3°C 24.1°F-4.4°C 92% Calm Calm -- 30.07 in1018.3 mb 0.00 in0.0 mm 0.00 in0.0 mm 0.00 in0.0 mm
06:10 AM 26.1°F-3.3°C 24.1°F-4.4°C 92% Calm Calm -- 30.07 in1018.3 mb 0.00 in0.0 mm 0.00 in0.0 mm 0.00 in0.0 mm
06:20 AM 26.1°F-3.3°C 24.1°F-4.4°C 92% Calm Calm -- 30.07 in1018.3 mb 0.00 in0.0 mm 0.00 in0.0 mm 0.00 in0.0 mm
08:00 AM 26.1°F-3.3°C 24.1°F-4.4°C 92% Calm Calm -- 30.03 in1016.9 mb 0.00 in0.0 mm 0.00 in0.0 mm 0.00 in0.0 mm
08:10 AM 26.2°F-3.2°C 24.2°F-4.3°C 92% Calm Calm -- 30.03 in1016.9 mb 0.00 in0.0 mm 0.00 in0.0 mm 0.00 in0.0 mm
08:20 AM 26.4°F-3.1°C 24.4°F-4.2°C 92% Calm Calm -- 30.03 in1016.9 mb 0.00 in0.0 mm 0.00 in0.0 mm 0.00 in0.0 mm
08:34 AM 27.0°F-2.8°C 25.0°F-3.9°C 92% Calm Calm -- 30.03 in1016.9 mb 0.00 in0.0 mm 0.00 in0.0 mm 0.00 in0.0 mm
10:00 AM 29.8°F-1.2°C 28.1°F-2.2°C 93% Calm Calm -- 30.02 in1016.6 mb 0.00 in0.0 mm 0.00 in0.0 mm 0.00 in0.0 mm
10:10 AM 30.4°F-0.9°C 28.6°F-1.9°C 93% Calm Calm -- 30.02 in1016.6 mb 0.00 in0.0 mm 0.00 in0.0 mm 0.00 in0.0 mm
10:20 AM 30.7°F-0.7°C 29.0°F-1.7°C 93% Calm Calm -- 30.02 in1016.6 mb 0.00 in0.0 mm 0.00 in0.0 mm 0.00 in0.0 mm
12:00 PM 32.4°F0.2°C 30.3°F-0.9°C 92% Calm Calm -- 30.03 in1016.9 mb 0.00 in0.0 mm 0.00 in0.0 mm 0.00 in0.0 mm
12:10 PM 32.5°F0.3°C 30.5°F-0.8°C 92% Calm Calm -- 30.03 in1016.9 mb 0.00 in0.0 mm 0.00 in0.0 mm 0.00 in0.0 mm
12:20 PM 32.7°F0.4°C 30.7°F-0.7°C 92% 1.2 mph N1.9 kmh N 3.0 mph4.8 kmh 30.02 in1016.6 mb 0.00 in0.0 mm 0.00 in0.0 mm 0.00 in0.0 mm
02:00 PM 33.4°F0.8°C 30.8°F-0.7°C 90% Calm Calm -- 30.03 in1016.9 mb 0.00 in0.0 mm 0.00 in0.0 mm 0.00 in0.0 mm
02:10 PM 33.6°F0.9°C 31.0°F-0.6°C 90% Calm Calm -- 30.03 in1016.9 mb 0.00 in0.0 mm 0.00 in0.0 mm 0.00 in0.0 mm
04:00 PM 34.5°F1.4°C 31.6°F-0.2°C 89% Calm Calm -- 30.03 in1016.9 mb 0.00 in0.0 mm 0.00 in0.0 mm 0.00 in0.0 mm
04:10 PM 34.3°F1.3°C 31.4°F-0.3°C 89% Calm Calm -- 30.03 in1016.9 mb 0.00 in0.0 mm 0.00 in0.0 mm 0.00 in0.0 mm
04:20 PM 34.2°F1.2°C 31.3°F-0.4°C 89% Calm Calm -- 30.03 in1016.9 mb 0.00 in0.0 mm 0.00 in0.0 mm 0.00 in0.0 mm
06:00 PM 32.4°F0.2°C 29.8°F-1.2°C 90% Calm Calm -- 30.04 in1017.3 mb 0.00 in0.0 mm 0.00 in0.0 mm 0.00 in0.0 mm
06:10 PM 32.4°F0.2°C 29.8°F-1.2°C 90% Calm Calm -- 30.04 in1017.3 mb 0.00 in0.0 mm 0.00 in0.0 mm 0.00 in0.0 mm
06:20 PM 32.5°F0.3°C 29.9°F-1.2°C 90% Calm Calm -- 30.05 in1017.6 mb 0.00 in0.0 mm 0.00 in0.0 mm 0.00 in0.0 mm
08:00 PM 32.7°F0.4°C 30.4°F-0.9°C 91% Calm Calm -- 30.04 in1017.3 mb 0.00 in0.0 mm 0.00 in0.0 mm 0.00 in0.0 mm
08:10 PM 32.7°F0.4°C 30.4°F-0.9°C 91% Calm Calm -- 30.05 in1017.6 mb 0.00 in0.0 mm 0.00 in0.0 mm 0.00 in0.0 mm
08:20 PM 32.7°F0.4°C 30.4°F-0.9°C 91% Calm Calm -- 30.05 in1017.6 mb 0.00 in0.0 mm 0.00 in0.0 mm 0.00 in0.0 mm
10:00 PM 32.9°F0.5°C 30.8°F-0.7°C 92% 0.2 mph N0.3 kmh N 1.0 mph1.6 kmh 30.05 in1017.6 mb 0.00 in0.0 mm 0.00 in0.0 mm 0.00 in0.0 mm
10:10 PM 32.9°F0.5°C 30.8°F-0.7°C 92% Calm Calm -- 30.05 in1017.6 mb 0.00 in0.0 mm 0.00 in0.0 mm 0.00 in0.0 mm
10:20 PM 32.9°F0.5°C 30.8°F-0.7°C 92% Calm Calm -- 30.05 in1017.6 mb 0.00 in0.0 mm 0.00 in0.0 mm 0.00 in0.0 mm